TIST/STT METAR and TAF weather

Enter ICAO airport designator
Station Type Date Time Source
TIST METAR 2020/11/27 14:53 UTC NOAA

TIST 271453Z 04005KT 10SM FEW038 27/21 A2996 RMK AO2 SLP144 T02720211 50000


Station Type Date Time Source
TIST Decoded METAR 2020/11/27 14:53 UTC NOAA

Charlotte Amalie St. Thomas, Cyril E. King Airport, Virgin Islands (TIST) 18-20N 064-59W
Nov 27, 2020 - 09:53 AM EST / 2020.11.27 1453 UTC
Wind: from the NE (040 degrees) at 6 MPH (5 KT):0
Visibility: 10 mile(s):0
Sky conditions: mostly clear
Temperature: 81.0 F (27.2 C)
Dew Point: 70.0 F (21.1 C)
Relative Humidity: 69%
Pressure (altimeter): 29.96 in. Hg (1014 hPa)
Pressure tendency: 0.00 inches (0.0 hPa) higher than three hours ago
ob: TIST 271453Z 04005KT 10SM FEW038 27/21 A2996 RMK AO2 SLP144 T02720211 50000
cycle: 15

Station Type Date Time Source
TIST TAF 2020/11/27 12:27 UTC NOAA

TAF TIST 271124Z 2712/2812 VRB03KT P6SM FEW025
FM271400 07010KT P6SM FEW025
FM272200 03005KT P6SM VCSH SCT025

Example: see airport list